sensor_id;sensor_type;location;lat;lon;timestamp;P1;durP1;ratioP1;P2;durP2;ratioP2
43160;SDS011;40968;52.342;5.528;2024-02-26T00:01:46;9.05;;;3.80;;
43160;SDS011;40968;52.342;5.528;2024-02-26T00:04:14;9.98;;;3.97;;
43160;SDS011;40968;52.342;5.528;2024-02-26T00:06:41;9.10;;;4.30;;
43160;SDS011;40968;52.342;5.528;2024-02-26T00:09:08;11.77;;;4.35;;
43160;SDS011;40968;52.342;5.528;2024-02-26T00:11:35;9.32;;;4.22;;
43160;SDS011;40968;52.342;5.528;2024-02-26T00:14:01;13.30;;;4.78;;
43160;SDS011;40968;52.342;5.528;2024-02-26T00:16:28;11.73;;;4.90;;
43160;SDS011;40968;52.342;5.528;2024-02-26T00:18:55;11.18;;;4.57;;
43160;SDS011;40968;52.342;5.528;2024-02-26T00:21:23;11.07;;;4.90;;
43160;SDS011;40968;52.342;5.528;2024-02-26T00:23:50;12.27;;;5.10;;
43160;SDS011;40968;52.342;5.528;2024-02-26T00:26:16;12.50;;;5.05;;
43160;SDS011;40968;52.342;5.528;2024-02-26T00:28:43;17.13;;;5.47;;
43160;SDS011;40968;52.342;5.528;2024-02-26T00:31:10;14.05;;;4.97;;
43160;SDS011;40968;52.342;5.528;2024-02-26T00:33:36;13.93;;;5.50;;
43160;SDS011;40968;52.342;5.528;2024-02-26T00:36:03;11.40;;;5.45;;
43160;SDS011;40968;52.342;5.528;2024-02-26T00:38:32;15.35;;;6.30;;
43160;SDS011;40968;52.342;5.528;2024-02-26T00:40:58;14.27;;;6.05;;
43160;SDS011;40968;52.342;5.528;2024-02-26T00:43:25;14.68;;;6.82;;
43160;SDS011;40968;52.342;5.528;2024-02-26T00:45:52;20.58;;;7.10;;
43160;SDS011;40968;52.342;5.528;2024-02-26T00:48:18;15.70;;;6.70;;
43160;SDS011;40968;52.342;5.528;2024-02-26T00:50:45;16.15;;;7.00;;
43160;SDS011;40968;52.342;5.528;2024-02-26T00:53:11;19.42;;;7.32;;
43160;SDS011;40968;52.342;5.528;2024-02-26T00:55:39;18.73;;;7.18;;
43160;SDS011;40968;52.342;5.528;2024-02-26T00:58:06;18.60;;;6.88;;
43160;SDS011;40968;52.342;5.528;2024-02-26T01:00:32;15.23;;;6.55;;
43160;SDS011;40968;52.342;5.528;2024-02-26T01:02:59;20.48;;;7.35;;
43160;SDS011;40968;52.342;5.528;2024-02-26T01:05:26;25.33;;;7.60;;
43160;SDS011;40968;52.342;5.528;2024-02-26T01:07:52;15.98;;;7.53;;
43160;SDS011;40968;52.342;5.528;2024-02-26T01:10:19;20.95;;;7.70;;
43160;SDS011;40968;52.342;5.528;2024-02-26T01:12:47;17.10;;;7.85;;
43160;SDS011;40968;52.342;5.528;2024-02-26T01:15:13;23.85;;;7.95;;
43160;SDS011;40968;52.342;5.528;2024-02-26T01:17:40;17.83;;;7.88;;
43160;SDS011;40968;52.342;5.528;2024-02-26T01:20:07;21.83;;;8.02;;
43160;SDS011;40968;52.342;5.528;2024-02-26T01:22:35;21.33;;;8.05;;
43160;SDS011;40968;52.342;5.528;2024-02-26T01:25:01;22.77;;;8.45;;
43160;SDS011;40968;52.342;5.528;2024-02-26T01:27:28;21.60;;;7.78;;
43160;SDS011;40968;52.342;5.528;2024-02-26T01:29:56;21.50;;;7.97;;
43160;SDS011;40968;52.342;5.528;2024-02-26T01:32:22;20.48;;;8.05;;
43160;SDS011;40968;52.342;5.528;2024-02-26T01:34:49;18.15;;;7.82;;
43160;SDS011;40968;52.342;5.528;2024-02-26T01:37:15;22.58;;;8.25;;
43160;SDS011;40968;52.342;5.528;2024-02-26T01:39:42;21.85;;;8.35;;
43160;SDS011;40968;52.342;5.528;2024-02-26T01:42:08;20.88;;;8.55;;
43160;SDS011;40968;52.342;5.528;2024-02-26T01:44:35;22.40;;;8.07;;
43160;SDS011;40968;52.342;5.528;2024-02-26T01:47:04;17.85;;;7.93;;
43160;SDS011;40968;52.342;5.528;2024-02-26T01:49:34;19.42;;;8.32;;
43160;SDS011;40968;52.342;5.528;2024-02-26T01:52:01;19.23;;;8.93;;
43160;SDS011;40968;52.342;5.528;2024-02-26T01:54:30;20.75;;;8.60;;
43160;SDS011;40968;52.342;5.528;2024-02-26T01:56:58;22.60;;;8.15;;
43160;SDS011;40968;52.342;5.528;2024-02-26T01:59:24;29.15;;;9.70;;
43160;SDS011;40968;52.342;5.528;2024-02-26T02:01:52;23.88;;;9.85;;
43160;SDS011;40968;52.342;5.528;2024-02-26T02:04:25;18.42;;;7.80;;
43160;SDS011;40968;52.342;5.528;2024-02-26T02:06:51;23.33;;;9.20;;
43160;SDS011;40968;52.342;5.528;2024-02-26T02:09:18;21.05;;;8.40;;
43160;SDS011;40968;52.342;5.528;2024-02-26T02:11:45;28.00;;;9.55;;
43160;SDS011;40968;52.342;5.528;2024-02-26T02:14:13;26.15;;;8.27;;
43160;SDS011;40968;52.342;5.528;2024-02-26T02:16:40;18.63;;;7.90;;
43160;SDS011;40968;52.342;5.528;2024-02-26T02:19:06;25.95;;;8.80;;
43160;SDS011;40968;52.342;5.528;2024-02-26T02:21:34;27.67;;;8.70;;
43160;SDS011;40968;52.342;5.528;2024-02-26T02:24:01;27.05;;;8.55;;
43160;SDS011;40968;52.342;5.528;2024-02-26T02:26:27;23.85;;;8.32;;
43160;SDS011;40968;52.342;5.528;2024-02-26T02:28:54;28.20;;;9.68;;
43160;SDS011;40968;52.342;5.528;2024-02-26T02:31:21;27.20;;;9.60;;
43160;SDS011;40968;52.342;5.528;2024-02-26T02:33:47;24.38;;;7.93;;
43160;SDS011;40968;52.342;5.528;2024-02-26T02:36:14;23.15;;;8.98;;
43160;SDS011;40968;52.342;5.528;2024-02-26T02:38:49;22.77;;;8.57;;
43160;SDS011;40968;52.342;5.528;2024-02-26T02:41:16;29.25;;;9.50;;
43160;SDS011;40968;52.342;5.528;2024-02-26T02:43:43;25.58;;;9.35;;
43160;SDS011;40968;52.342;5.528;2024-02-26T02:46:09;28.00;;;9.68;;
43160;SDS011;40968;52.342;5.528;2024-02-26T02:48:36;26.63;;;10.25;;
43160;SDS011;40968;52.342;5.528;2024-02-26T02:51:03;28.90;;;9.52;;
43160;SDS011;40968;52.342;5.528;2024-02-26T02:53:30;29.23;;;9.70;;
43160;SDS011;40968;52.342;5.528;2024-02-26T02:55:58;26.77;;;9.48;;
43160;SDS011;40968;52.342;5.528;2024-02-26T02:58:25;28.83;;;9.55;;
43160;SDS011;40968;52.342;5.528;2024-02-26T03:00:51;29.25;;;10.68;;
43160;SDS011;40968;52.342;5.528;2024-02-26T03:03:20;30.88;;;10.43;;
43160;SDS011;40968;52.342;5.528;2024-02-26T03:05:49;27.85;;;9.57;;
43160;SDS011;40968;52.342;5.528;2024-02-26T03:08:15;32.88;;;10.35;;
43160;SDS011;40968;52.342;5.528;2024-02-26T03:10:42;30.52;;;11.25;;
43160;SDS011;40968;52.342;5.528;2024-02-26T03:13:10;26.35;;;9.90;;
43160;SDS011;40968;52.342;5.528;2024-02-26T03:15:37;33.25;;;10.82;;
43160;SDS011;40968;52.342;5.528;2024-02-26T03:18:04;26.40;;;10.43;;
43160;SDS011;40968;52.342;5.528;2024-02-26T03:20:30;26.75;;;10.45;;
43160;SDS011;40968;52.342;5.528;2024-02-26T03:22:57;30.65;;;10.73;;
43160;SDS011;40968;52.342;5.528;2024-02-26T03:25:24;29.92;;;9.63;;
43160;SDS011;40968;52.342;5.528;2024-02-26T03:27:50;26.33;;;9.55;;
43160;SDS011;40968;52.342;5.528;2024-02-26T03:30:18;28.70;;;10.35;;
43160;SDS011;40968;52.342;5.528;2024-02-26T03:32:45;30.10;;;9.85;;
43160;SDS011;40968;52.342;5.528;2024-02-26T03:35:12;22.13;;;9.10;;
43160;SDS011;40968;52.342;5.528;2024-02-26T03:37:39;26.63;;;9.50;;
43160;SDS011;40968;52.342;5.528;2024-02-26T03:40:06;29.67;;;9.35;;
43160;SDS011;40968;52.342;5.528;2024-02-26T03:42:34;32.85;;;9.68;;
43160;SDS011;40968;52.342;5.528;2024-02-26T03:45:00;29.80;;;10.02;;
43160;SDS011;40968;52.342;5.528;2024-02-26T03:47:28;33.15;;;10.65;;
43160;SDS011;40968;52.342;5.528;2024-02-26T03:49:55;29.55;;;10.57;;
43160;SDS011;40968;52.342;5.528;2024-02-26T03:52:21;29.77;;;10.55;;
43160;SDS011;40968;52.342;5.528;2024-02-26T03:54:48;24.38;;;10.13;;
43160;SDS011;40968;52.342;5.528;2024-02-26T03:57:15;30.33;;;10.43;;
43160;SDS011;40968;52.342;5.528;2024-02-26T03:59:41;25.15;;;9.52;;
43160;SDS011;40968;52.342;5.528;2024-02-26T04:02:08;23.52;;;9.63;;
43160;SDS011;40968;52.342;5.528;2024-02-26T04:04:36;28.05;;;10.20;;
43160;SDS011;40968;52.342;5.528;2024-02-26T04:07:03;26.23;;;10.18;;
43160;SDS011;40968;52.342;5.528;2024-02-26T04:09:30;30.20;;;9.90;;
43160;SDS011;40968;52.342;5.528;2024-02-26T04:11:57;34.35;;;10.60;;
43160;SDS011;40968;52.342;5.528;2024-02-26T04:14:24;26.98;;;10.50;;
43160;SDS011;40968;52.342;5.528;2024-02-26T04:16:51;25.55;;;9.38;;
43160;SDS011;40968;52.342;5.528;2024-02-26T04:19:19;26.88;;;9.55;;
43160;SDS011;40968;52.342;5.528;2024-02-26T04:21:47;31.98;;;10.77;;
43160;SDS011;40968;52.342;5.528;2024-02-26T04:24:14;32.95;;;10.98;;
43160;SDS011;40968;52.342;5.528;2024-02-26T04:26:40;30.45;;;10.20;;
43160;SDS011;40968;52.342;5.528;2024-02-26T04:29:07;29.15;;;10.60;;
43160;SDS011;40968;52.342;5.528;2024-02-26T04:31:34;26.08;;;9.98;;
43160;SDS011;40968;52.342;5.528;2024-02-26T04:34:00;30.70;;;10.23;;
43160;SDS011;40968;52.342;5.528;2024-02-26T04:36:27;28.48;;;10.45;;
43160;SDS011;40968;52.342;5.528;2024-02-26T04:38:55;30.58;;;10.60;;
43160;SDS011;40968;52.342;5.528;2024-02-26T04:41:21;31.33;;;10.68;;
43160;SDS011;40968;52.342;5.528;2024-02-26T04:43:48;29.35;;;10.65;;
43160;SDS011;40968;52.342;5.528;2024-02-26T04:46:14;33.47;;;10.80;;
43160;SDS011;40968;52.342;5.528;2024-02-26T04:48:41;35.92;;;11.43;;
43160;SDS011;40968;52.342;5.528;2024-02-26T04:51:08;35.95;;;11.57;;
43160;SDS011;40968;52.342;5.528;2024-02-26T04:53:34;31.85;;;10.70;;
43160;SDS011;40968;52.342;5.528;2024-02-26T04:56:03;34.22;;;11.10;;
43160;SDS011;40968;52.342;5.528;2024-02-26T04:58:30;37.42;;;12.23;;
43160;SDS011;40968;52.342;5.528;2024-02-26T05:00:56;33.60;;;12.80;;
43160;SDS011;40968;52.342;5.528;2024-02-26T05:03:23;38.20;;;11.75;;
43160;SDS011;40968;52.342;5.528;2024-02-26T05:05:49;42.22;;;13.52;;
43160;SDS011;40968;52.342;5.528;2024-02-26T05:08:16;34.75;;;11.85;;
43160;SDS011;40968;52.342;5.528;2024-02-26T05:10:44;40.35;;;13.07;;
43160;SDS011;40968;52.342;5.528;2024-02-26T05:13:12;37.08;;;13.73;;
43160;SDS011;40968;52.342;5.528;2024-02-26T05:15:40;44.00;;;13.93;;
43160;SDS011;40968;52.342;5.528;2024-02-26T05:18:07;38.47;;;13.43;;
43160;SDS011;40968;52.342;5.528;2024-02-26T05:20:33;45.97;;;13.35;;
43160;SDS011;40968;52.342;5.528;2024-02-26T05:23:01;44.67;;;13.40;;
43160;SDS011;40968;52.342;5.528;2024-02-26T05:25:28;64.10;;;16.08;;
43160;SDS011;40968;52.342;5.528;2024-02-26T05:27:55;52.00;;;15.57;;
43160;SDS011;40968;52.342;5.528;2024-02-26T05:30:23;49.60;;;15.45;;
43160;SDS011;40968;52.342;5.528;2024-02-26T05:32:52;48.80;;;16.15;;
43160;SDS011;40968;52.342;5.528;2024-02-26T05:35:18;55.90;;;16.15;;
43160;SDS011;40968;52.342;5.528;2024-02-26T05:37:45;46.63;;;16.35;;
43160;SDS011;40968;52.342;5.528;2024-02-26T05:40:12;54.65;;;14.50;;
43160;SDS011;40968;52.342;5.528;2024-02-26T05:42:39;53.30;;;15.30;;
43160;SDS011;40968;52.342;5.528;2024-02-26T05:45:06;45.58;;;15.23;;
43160;SDS011;40968;52.342;5.528;2024-02-26T05:47:34;56.67;;;16.92;;
43160;SDS011;40968;52.342;5.528;2024-02-26T05:50:01;53.35;;;17.15;;
43160;SDS011;40968;52.342;5.528;2024-02-26T05:52:28;57.78;;;17.00;;
43160;SDS011;40968;52.342;5.528;2024-02-26T05:54:56;53.33;;;18.65;;
43160;SDS011;40968;52.342;5.528;2024-02-26T05:57:23;48.30;;;15.75;;
43160;SDS011;40968;52.342;5.528;2024-02-26T05:59:50;57.80;;;17.02;;
43160;SDS011;40968;52.342;5.528;2024-02-26T06:02:16;61.65;;;19.05;;
43160;SDS011;40968;52.342;5.528;2024-02-26T06:04:44;56.05;;;16.27;;
43160;SDS011;40968;52.342;5.528;2024-02-26T06:07:11;63.28;;;19.27;;
43160;SDS011;40968;52.342;5.528;2024-02-26T06:09:38;59.80;;;18.20;;
43160;SDS011;40968;52.342;5.528;2024-02-26T06:12:05;56.55;;;16.92;;
43160;SDS011;40968;52.342;5.528;2024-02-26T06:14:32;54.13;;;18.55;;
43160;SDS011;40968;52.342;5.528;2024-02-26T06:16:58;64.53;;;19.83;;
43160;SDS011;40968;52.342;5.528;2024-02-26T06:19:25;64.82;;;19.08;;
43160;SDS011;40968;52.342;5.528;2024-02-26T06:21:53;56.47;;;17.95;;
43160;SDS011;40968;52.342;5.528;2024-02-26T06:24:19;57.63;;;19.23;;
43160;SDS011;40968;52.342;5.528;2024-02-26T06:26:47;63.20;;;19.38;;
43160;SDS011;40968;52.342;5.528;2024-02-26T06:29:14;60.13;;;18.95;;
43160;SDS011;40968;52.342;5.528;2024-02-26T06:31:41;58.55;;;19.27;;
43160;SDS011;40968;52.342;5.528;2024-02-26T06:34:08;69.25;;;18.02;;
43160;SDS011;40968;52.342;5.528;2024-02-26T06:36:34;57.60;;;18.10;;
43160;SDS011;40968;52.342;5.528;2024-02-26T06:39:02;59.15;;;18.20;;
43160;SDS011;40968;52.342;5.528;2024-02-26T06:41:30;54.65;;;17.73;;
43160;SDS011;40968;52.342;5.528;2024-02-26T06:43:57;58.53;;;17.90;;
43160;SDS011;40968;52.342;5.528;2024-02-26T06:46:23;63.63;;;18.38;;
43160;SDS011;40968;52.342;5.528;2024-02-26T06:48:51;61.20;;;17.05;;
43160;SDS011;40968;52.342;5.528;2024-02-26T06:51:18;53.72;;;15.52;;
43160;SDS011;40968;52.342;5.528;2024-02-26T06:53:45;57.13;;;16.80;;
43160;SDS011;40968;52.342;5.528;2024-02-26T06:56:13;49.17;;;14.57;;
43160;SDS011;40968;52.342;5.528;2024-02-26T06:58:39;49.78;;;15.45;;
43160;SDS011;40968;52.342;5.528;2024-02-26T07:01:06;38.85;;;13.82;;
43160;SDS011;40968;52.342;5.528;2024-02-26T07:03:33;42.55;;;14.02;;
43160;SDS011;40968;52.342;5.528;2024-02-26T07:06:00;46.75;;;14.50;;
43160;SDS011;40968;52.342;5.528;2024-02-26T07:08:26;35.10;;;12.88;;
43160;SDS011;40968;52.342;5.528;2024-02-26T07:10:53;38.97;;;12.32;;
43160;SDS011;40968;52.342;5.528;2024-02-26T07:13:21;37.67;;;12.18;;
43160;SDS011;40968;52.342;5.528;2024-02-26T07:15:48;35.70;;;12.20;;
43160;SDS011;40968;52.342;5.528;2024-02-26T07:18:15;37.25;;;11.15;;
43160;SDS011;40968;52.342;5.528;2024-02-26T07:20:41;33.97;;;10.85;;
43160;SDS011;40968;52.342;5.528;2024-02-26T07:23:08;32.88;;;11.48;;
43160;SDS011;40968;52.342;5.528;2024-02-26T07:25:35;38.30;;;10.95;;
43160;SDS011;40968;52.342;5.528;2024-02-26T07:28:01;35.08;;;12.77;;
43160;SDS011;40968;52.342;5.528;2024-02-26T07:30:29;36.67;;;10.50;;
43160;SDS011;40968;52.342;5.528;2024-02-26T07:32:56;32.42;;;9.38;;
43160;SDS011;40968;52.342;5.528;2024-02-26T07:35:24;31.40;;;10.32;;
43160;SDS011;40968;52.342;5.528;2024-02-26T07:37:52;32.13;;;10.73;;
43160;SDS011;40968;52.342;5.528;2024-02-26T07:40:19;23.83;;;9.27;;
43160;SDS011;40968;52.342;5.528;2024-02-26T07:42:45;41.05;;;10.35;;
43160;SDS011;40968;52.342;5.528;2024-02-26T07:45:12;24.70;;;8.60;;
43160;SDS011;40968;52.342;5.528;2024-02-26T07:47:42;23.88;;;8.25;;
43160;SDS011;40968;52.342;5.528;2024-02-26T07:50:08;26.88;;;9.18;;
43160;SDS011;40968;52.342;5.528;2024-02-26T07:52:36;24.05;;;9.13;;
43160;SDS011;40968;52.342;5.528;2024-02-26T07:55:03;28.13;;;8.85;;
43160;SDS011;40968;52.342;5.528;2024-02-26T07:57:32;27.95;;;8.25;;
43160;SDS011;40968;52.342;5.528;2024-02-26T07:59:59;25.15;;;8.32;;
43160;SDS011;40968;52.342;5.528;2024-02-26T08:02:26;22.85;;;7.93;;
43160;SDS011;40968;52.342;5.528;2024-02-26T08:04:54;26.38;;;7.90;;
43160;SDS011;40968;52.342;5.528;2024-02-26T08:07:20;20.08;;;7.50;;
43160;SDS011;40968;52.342;5.528;2024-02-26T08:09:47;29.38;;;9.02;;
43160;SDS011;40968;52.342;5.528;2024-02-26T08:12:14;22.30;;;7.85;;
43160;SDS011;40968;52.342;5.528;2024-02-26T08:14:40;30.88;;;8.45;;
43160;SDS011;40968;52.342;5.528;2024-02-26T08:17:07;29.65;;;8.35;;
43160;SDS011;40968;52.342;5.528;2024-02-26T08:19:34;25.10;;;7.47;;
43160;SDS011;40968;52.342;5.528;2024-02-26T08:22:02;20.83;;;7.85;;
43160;SDS011;40968;52.342;5.528;2024-02-26T08:24:29;18.42;;;6.65;;
43160;SDS011;40968;52.342;5.528;2024-02-26T08:26:56;24.38;;;7.35;;
43160;SDS011;40968;52.342;5.528;2024-02-26T08:29:22;24.75;;;6.63;;
43160;SDS011;40968;52.342;5.528;2024-02-26T08:31:49;15.73;;;6.07;;
43160;SDS011;40968;52.342;5.528;2024-02-26T08:34:16;16.42;;;5.80;;
43160;SDS011;40968;52.342;5.528;2024-02-26T08:36:42;21.25;;;6.25;;
43160;SDS011;40968;52.342;5.528;2024-02-26T08:39:11;14.07;;;6.05;;
43160;SDS011;40968;52.342;5.528;2024-02-26T08:41:38;17.27;;;5.60;;
43160;SDS011;40968;52.342;5.528;2024-02-26T08:44:05;18.85;;;6.07;;
43160;SDS011;40968;52.342;5.528;2024-02-26T08:46:32;16.80;;;6.15;;
43160;SDS011;40968;52.342;5.528;2024-02-26T08:48:58;19.17;;;6.22;;
43160;SDS011;40968;52.342;5.528;2024-02-26T08:51:26;20.67;;;7.05;;
43160;SDS011;40968;52.342;5.528;2024-02-26T08:53:54;20.25;;;6.28;;
43160;SDS011;40968;52.342;5.528;2024-02-26T08:56:22;17.05;;;6.05;;
43160;SDS011;40968;52.342;5.528;2024-02-26T08:58:49;13.63;;;5.45;;
43160;SDS011;40968;52.342;5.528;2024-02-26T09:01:16;14.55;;;5.80;;
43160;SDS011;40968;52.342;5.528;2024-02-26T09:03:43;17.60;;;5.72;;
43160;SDS011;40968;52.342;5.528;2024-02-26T09:06:09;20.08;;;6.18;;
43160;SDS011;40968;52.342;5.528;2024-02-26T09:08:36;15.57;;;5.45;;
43160;SDS011;40968;52.342;5.528;2024-02-26T09:11:04;13.90;;;5.40;;
43160;SDS011;40968;52.342;5.528;2024-02-26T09:13:32;14.05;;;5.10;;
43160;SDS011;40968;52.342;5.528;2024-02-26T09:15:58;14.70;;;5.28;;
43160;SDS011;40968;52.342;5.528;2024-02-26T09:18:25;16.75;;;5.38;;
43160;SDS011;40968;52.342;5.528;2024-02-26T09:20:53;15.20;;;5.50;;
43160;SDS011;40968;52.342;5.528;2024-02-26T09:23:20;18.83;;;5.38;;
43160;SDS011;40968;52.342;5.528;2024-02-26T09:25:47;14.35;;;5.47;;
43160;SDS011;40968;52.342;5.528;2024-02-26T09:28:13;16.88;;;5.25;;
43160;SDS011;40968;52.342;5.528;2024-02-26T09:30:43;15.57;;;4.85;;
43160;SDS011;40968;52.342;5.528;2024-02-26T09:33:09;15.82;;;6.05;;
43160;SDS011;40968;52.342;5.528;2024-02-26T09:35:36;20.75;;;5.75;;
43160;SDS011;40968;52.342;5.528;2024-02-26T09:38:05;15.40;;;5.60;;
43160;SDS011;40968;52.342;5.528;2024-02-26T09:40:31;18.17;;;5.53;;
43160;SDS011;40968;52.342;5.528;2024-02-26T09:42:59;13.88;;;4.95;;
43160;SDS011;40968;52.342;5.528;2024-02-26T09:45:27;14.80;;;5.50;;
43160;SDS011;40968;52.342;5.528;2024-02-26T09:47:58;19.33;;;5.30;;
43160;SDS011;40968;52.342;5.528;2024-02-26T09:50:24;22.30;;;6.13;;
43160;SDS011;40968;52.342;5.528;2024-02-26T09:52:51;16.98;;;5.70;;
43160;SDS011;40968;52.342;5.528;2024-02-26T09:55:20;18.05;;;5.70;;
43160;SDS011;40968;52.342;5.528;2024-02-26T09:57:46;15.52;;;4.70;;
43160;SDS011;40968;52.342;5.528;2024-02-26T10:00:17;15.40;;;5.32;;
43160;SDS011;40968;52.342;5.528;2024-02-26T10:02:45;18.40;;;5.53;;
43160;SDS011;40968;52.342;5.528;2024-02-26T10:05:14;18.30;;;5.75;;
43160;SDS011;40968;52.342;5.528;2024-02-26T10:07:42;15.68;;;5.40;;
43160;SDS011;40968;52.342;5.528;2024-02-26T10:10:10;14.68;;;5.35;;
43160;SDS011;40968;52.342;5.528;2024-02-26T10:12:36;13.68;;;5.45;;
43160;SDS011;40968;52.342;5.528;2024-02-26T10:15:03;16.83;;;5.38;;
43160;SDS011;40968;52.342;5.528;2024-02-26T10:17:30;16.15;;;6.00;;
43160;SDS011;40968;52.342;5.528;2024-02-26T10:20:10;13.52;;;5.93;;
43160;SDS011;40968;52.342;5.528;2024-02-26T10:22:42;14.48;;;5.25;;
43160;SDS011;40968;52.342;5.528;2024-02-26T10:25:09;15.20;;;5.28;;
43160;SDS011;40968;52.342;5.528;2024-02-26T10:27:36;18.98;;;5.68;;
43160;SDS011;40968;52.342;5.528;2024-02-26T10:30:03;14.30;;;5.50;;
43160;SDS011;40968;52.342;5.528;2024-02-26T10:32:30;18.75;;;5.60;;
43160;SDS011;40968;52.342;5.528;2024-02-26T10:34:58;16.00;;;5.20;;
43160;SDS011;40968;52.342;5.528;2024-02-26T10:37:26;18.23;;;5.53;;
43160;SDS011;40968;52.342;5.528;2024-02-26T10:39:52;16.05;;;5.57;;
43160;SDS011;40968;52.342;5.528;2024-02-26T10:42:19;12.90;;;5.80;;
43160;SDS011;40968;52.342;5.528;2024-02-26T10:44:46;20.95;;;6.18;;
43160;SDS011;40968;52.342;5.528;2024-02-26T10:47:13;12.95;;;5.10;;
43160;SDS011;40968;52.342;5.528;2024-02-26T10:49:44;17.88;;;5.80;;
43160;SDS011;40968;52.342;5.528;2024-02-26T10:52:12;18.27;;;5.70;;
43160;SDS011;40968;52.342;5.528;2024-02-26T10:54:41;13.70;;;5.25;;
43160;SDS011;40968;52.342;5.528;2024-02-26T10:57:09;17.83;;;5.80;;
43160;SDS011;40968;52.342;5.528;2024-02-26T10:59:37;19.48;;;5.97;;
43160;SDS011;40968;52.342;5.528;2024-02-26T11:02:05;14.80;;;5.07;;
43160;SDS011;40968;52.342;5.528;2024-02-26T11:04:35;15.70;;;5.25;;
43160;SDS011;40968;52.342;5.528;2024-02-26T11:07:03;18.38;;;5.57;;
43160;SDS011;40968;52.342;5.528;2024-02-26T11:09:31;15.73;;;5.15;;
43160;SDS011;40968;52.342;5.528;2024-02-26T11:11:59;13.15;;;5.30;;
43160;SDS011;40968;52.342;5.528;2024-02-26T11:14:27;16.10;;;5.75;;
43160;SDS011;40968;52.342;5.528;2024-02-26T11:16:56;13.10;;;5.07;;
43160;SDS011;40968;52.342;5.528;2024-02-26T11:19:24;12.82;;;4.70;;
43160;SDS011;40968;52.342;5.528;2024-02-26T11:21:52;17.13;;;5.50;;
43160;SDS011;40968;52.342;5.528;2024-02-26T11:24:19;16.15;;;5.20;;
43160;SDS011;40968;52.342;5.528;2024-02-26T11:26:57;13.30;;;4.90;;
43160;SDS011;40968;52.342;5.528;2024-02-26T11:29:28;13.57;;;4.72;;
43160;SDS011;40968;52.342;5.528;2024-02-26T11:32:00;13.20;;;4.93;;
43160;SDS011;40968;52.342;5.528;2024-02-26T11:34:27;13.73;;;4.85;;
43160;SDS011;40968;52.342;5.528;2024-02-26T11:36:54;12.35;;;4.55;;
43160;SDS011;40968;52.342;5.528;2024-02-26T11:39:22;16.88;;;5.30;;
43160;SDS011;40968;52.342;5.528;2024-02-26T11:41:49;14.48;;;4.75;;
43160;SDS011;40968;52.342;5.528;2024-02-26T11:44:21;12.45;;;4.40;;
43160;SDS011;40968;52.342;5.528;2024-02-26T11:46:55;10.10;;;4.70;;
43160;SDS011;40968;52.342;5.528;2024-02-26T11:49:30;15.38;;;5.03;;
43160;SDS011;40968;52.342;5.528;2024-02-26T11:51:57;15.25;;;4.53;;
43160;SDS011;40968;52.342;5.528;2024-02-26T11:54:38;13.50;;;4.45;;
43160;SDS011;40968;52.342;5.528;2024-02-26T11:57:19;17.97;;;4.97;;
43160;SDS011;40968;52.342;5.528;2024-02-26T12:05:12;10.13;;;4.43;;
43160;SDS011;40968;52.342;5.528;2024-02-26T12:07:42;11.65;;;4.60;;
43160;SDS011;40968;52.342;5.528;2024-02-26T12:10:21;10.85;;;4.40;;
43160;SDS011;40968;52.342;5.528;2024-02-26T12:12:52;13.02;;;4.78;;
43160;SDS011;40968;52.342;5.528;2024-02-26T12:15:22;15.32;;;4.38;;
43160;SDS011;40968;52.342;5.528;2024-02-26T12:17:49;11.68;;;4.40;;
43160;SDS011;40968;52.342;5.528;2024-02-26T12:20:17;14.05;;;4.82;;
43160;SDS011;40968;52.342;5.528;2024-02-26T12:22:45;12.57;;;4.60;;
43160;SDS011;40968;52.342;5.528;2024-02-26T12:25:13;12.90;;;4.30;;
43160;SDS011;40968;52.342;5.528;2024-02-26T12:27:40;11.27;;;4.32;;
43160;SDS011;40968;52.342;5.528;2024-02-26T12:30:08;13.25;;;5.03;;
43160;SDS011;40968;52.342;5.528;2024-02-26T12:32:37;14.00;;;4.93;;
43160;SDS011;40968;52.342;5.528;2024-02-26T12:35:03;14.43;;;4.63;;
43160;SDS011;40968;52.342;5.528;2024-02-26T12:37:32;10.75;;;4.00;;
43160;SDS011;40968;52.342;5.528;2024-02-26T12:40:01;11.00;;;4.00;;
43160;SDS011;40968;52.342;5.528;2024-02-26T12:42:28;13.57;;;4.60;;
43160;SDS011;40968;52.342;5.528;2024-02-26T12:44:57;11.98;;;4.80;;
43160;SDS011;40968;52.342;5.528;2024-02-26T12:47:24;10.80;;;4.32;;
43160;SDS011;40968;52.342;5.528;2024-02-26T12:49:52;10.23;;;4.20;;
43160;SDS011;40968;52.342;5.528;2024-02-26T12:52:19;11.57;;;4.10;;
43160;SDS011;40968;52.342;5.528;2024-02-26T12:54:46;13.80;;;4.25;;
43160;SDS011;40968;52.342;5.528;2024-02-26T12:57:13;10.75;;;3.80;;
43160;SDS011;40968;52.342;5.528;2024-02-26T12:59:41;12.35;;;4.35;;
43160;SDS011;40968;52.342;5.528;2024-02-26T13:02:07;12.18;;;4.38;;
43160;SDS011;40968;52.342;5.528;2024-02-26T13:04:34;10.82;;;3.88;;
43160;SDS011;40968;52.342;5.528;2024-02-26T13:07:04;15.75;;;3.80;;
43160;SDS011;40968;52.342;5.528;2024-02-26T13:09:32;11.55;;;3.75;;
43160;SDS011;40968;52.342;5.528;2024-02-26T13:11:59;14.55;;;4.25;;
43160;SDS011;40968;52.342;5.528;2024-02-26T13:14:26;8.02;;;3.83;;
43160;SDS011;40968;52.342;5.528;2024-02-26T13:16:56;11.98;;;4.70;;
43160;SDS011;40968;52.342;5.528;2024-02-26T13:19:23;12.57;;;4.22;;
43160;SDS011;40968;52.342;5.528;2024-02-26T13:21:50;13.27;;;4.13;;
43160;SDS011;40968;52.342;5.528;2024-02-26T13:24:19;9.13;;;4.13;;
43160;SDS011;40968;52.342;5.528;2024-02-26T13:26:47;12.98;;;4.00;;
43160;SDS011;40968;52.342;5.528;2024-02-26T13:29:20;9.63;;;3.95;;
43160;SDS011;40968;52.342;5.528;2024-02-26T13:31:47;8.10;;;3.70;;
43160;SDS011;40968;52.342;5.528;2024-02-26T13:34:22;15.88;;;4.40;;
43160;SDS011;40968;52.342;5.528;2024-02-26T13:36:50;11.48;;;4.40;;
43160;SDS011;40968;52.342;5.528;2024-02-26T13:39:22;10.25;;;4.32;;
43160;SDS011;40968;52.342;5.528;2024-02-26T13:41:50;15.02;;;4.30;;
43160;SDS011;40968;52.342;5.528;2024-02-26T13:44:16;10.30;;;4.18;;
43160;SDS011;40968;52.342;5.528;2024-02-26T13:46:43;9.77;;;3.80;;
43160;SDS011;40968;52.342;5.528;2024-02-26T13:49:10;10.95;;;4.30;;
43160;SDS011;40968;52.342;5.528;2024-02-26T13:51:36;10.95;;;3.95;;
43160;SDS011;40968;52.342;5.528;2024-02-26T13:54:03;8.35;;;4.07;;
43160;SDS011;40968;52.342;5.528;2024-02-26T13:56:31;9.90;;;3.72;;
43160;SDS011;40968;52.342;5.528;2024-02-26T13:58:58;9.05;;;3.92;;
43160;SDS011;40968;52.342;5.528;2024-02-26T14:01:25;9.90;;;3.95;;
43160;SDS011;40968;52.342;5.528;2024-02-26T14:03:52;10.23;;;3.97;;
43160;SDS011;40968;52.342;5.528;2024-02-26T14:06:20;10.93;;;3.65;;
43160;SDS011;40968;52.342;5.528;2024-02-26T14:08:47;12.30;;;3.70;;
43160;SDS011;40968;52.342;5.528;2024-02-26T14:11:13;8.13;;;3.78;;
43160;SDS011;40968;52.342;5.528;2024-02-26T14:13:41;7.93;;;3.15;;
43160;SDS011;40968;52.342;5.528;2024-02-26T14:16:08;7.60;;;3.47;;
43160;SDS011;40968;52.342;5.528;2024-02-26T14:18:35;11.35;;;3.30;;
43160;SDS011;40968;52.342;5.528;2024-02-26T14:21:02;8.40;;;3.47;;
43160;SDS011;40968;52.342;5.528;2024-02-26T14:23:28;7.40;;;3.25;;
43160;SDS011;40968;52.342;5.528;2024-02-26T14:25:55;9.90;;;3.10;;
43160;SDS011;40968;52.342;5.528;2024-02-26T14:28:22;11.25;;;3.28;;
43160;SDS011;40968;52.342;5.528;2024-02-26T14:30:51;7.78;;;2.90;;
43160;SDS011;40968;52.342;5.528;2024-02-26T14:33:17;10.95;;;3.70;;
43160;SDS011;40968;52.342;5.528;2024-02-26T14:35:44;7.15;;;2.80;;
43160;SDS011;40968;52.342;5.528;2024-02-26T14:38:10;12.27;;;3.22;;